createdAt,value
2022-12-04T00:00:14.309Z,21.10
2022-12-04T00:02:35.558Z,20.43
2022-12-04T00:04:58.247Z,22.03
2022-12-04T00:07:19.463Z,21.23
2022-12-04T00:09:40.800Z,20.93
2022-12-04T00:12:02.071Z,21.27
2022-12-04T00:14:23.421Z,21.90
2022-12-04T00:16:44.412Z,21.80
2022-12-04T00:19:05.724Z,19.97
2022-12-04T00:21:28.215Z,20.97
2022-12-04T00:23:50.113Z,20.90
2022-12-04T00:26:12.098Z,20.37
2022-12-04T00:28:33.370Z,21.53
2022-12-04T00:30:54.220Z,21.03
2022-12-04T00:33:15.558Z,22.53
2022-12-04T00:35:37.174Z,22.00
2022-12-04T00:37:59.817Z,22.30
2022-12-04T00:40:20.927Z,22.97
2022-12-04T00:42:42.244Z,21.67
2022-12-04T00:45:03.689Z,22.60
2022-12-04T00:47:24.516Z,22.03
2022-12-04T00:49:45.623Z,21.73
2022-12-04T00:52:06.747Z,23.20
2022-12-04T00:54:29.324Z,23.73
2022-12-04T00:56:50.508Z,24.93
2022-12-04T00:59:11.795Z,24.07
2022-12-04T01:01:33.262Z,23.93
2022-12-04T01:03:55.505Z,22.30
2022-12-04T01:06:21.205Z,24.33
2022-12-04T01:08:42.068Z,23.20
2022-12-04T01:11:07.872Z,22.33
2022-12-04T01:13:30.371Z,22.93
2022-12-04T01:15:51.521Z,21.83
2022-12-04T01:18:12.698Z,22.03
2022-12-04T01:20:33.676Z,20.73
2022-12-04T01:22:55.041Z,21.07
2022-12-04T01:25:16.531Z,20.77
2022-12-04T01:27:39.301Z,22.13
2022-12-04T01:30:00.712Z,20.73
2022-12-04T01:32:21.762Z,21.57
2022-12-04T01:34:43.006Z,19.53
2022-12-04T01:37:04.440Z,19.80
2022-12-04T01:39:25.618Z,19.07
2022-12-04T01:41:46.934Z,19.07
2022-12-04T01:44:14.424Z,18.73
2022-12-04T01:46:35.415Z,16.40
2022-12-04T01:48:56.732Z,17.50
2022-12-04T01:51:19.367Z,17.27
2022-12-04T01:53:41.927Z,16.70
2022-12-04T01:56:03.951Z,16.17
2022-12-04T01:58:27.934Z,16.43
2022-12-04T02:00:56.883Z,15.80
2022-12-04T02:03:19.505Z,15.40
2022-12-04T02:05:40.822Z,15.87
2022-12-04T02:08:05.570Z,15.80
2022-12-04T02:10:30.954Z,16.23
2022-12-04T02:12:57.088Z,15.07
2022-12-04T02:15:22.689Z,14.90
2022-12-04T02:17:49.382Z,16.20
2022-12-04T02:20:17.467Z,15.63
2022-12-04T02:22:46.344Z,15.03
2022-12-04T02:25:13.766Z,16.50
2022-12-04T02:27:55.938Z,15.13
2022-12-04T02:30:17.480Z,16.37
2022-12-04T02:32:41.488Z,15.63
2022-12-04T02:35:04.916Z,15.63
2022-12-04T02:37:29.042Z,15.80
2022-12-04T02:39:53.206Z,15.47
2022-12-04T02:42:15.991Z,15.20
2022-12-04T02:44:40.353Z,15.40
2022-12-04T02:47:03.411Z,15.60
2022-12-04T02:49:27.919Z,15.50
2022-12-04T02:51:50.340Z,14.83
2022-12-04T02:54:13.717Z,14.60
2022-12-04T02:56:37.766Z,14.37
2022-12-04T02:59:00.560Z,14.53
2022-12-04T03:01:26.217Z,12.93
2022-12-04T03:03:50.766Z,14.20
2022-12-04T03:06:12.977Z,13.30
2022-12-04T03:08:35.706Z,13.37
2022-12-04T03:10:57.515Z,13.50
2022-12-04T03:13:20.039Z,13.53
2022-12-04T03:15:43.331Z,13.07
2022-12-04T03:18:08.824Z,12.80
2022-12-04T03:20:32.100Z,14.03
2022-12-04T03:22:55.993Z,12.60
2022-12-04T03:25:17.183Z,13.50
2022-12-04T03:27:43.567Z,12.87
2022-12-04T03:30:06.627Z,12.73
2022-12-04T03:32:30.395Z,13.13
2022-12-04T03:34:56.767Z,13.10
2022-12-04T03:37:19.511Z,13.00
2022-12-04T03:39:46.371Z,13.30
2022-12-04T03:42:10.195Z,12.83
2022-12-04T03:44:34.928Z,13.27
2022-12-04T03:46:57.061Z,13.57
2022-12-04T03:49:19.911Z,12.93
2022-12-04T03:51:44.614Z,12.50
2022-12-04T03:54:09.261Z,13.90
2022-12-04T03:56:31.517Z,14.20
2022-12-04T03:58:56.279Z,13.03
2022-12-04T04:01:19.951Z,12.73
2022-12-04T04:03:43.591Z,12.70
2022-12-04T04:06:07.130Z,12.37
2022-12-04T04:08:34.449Z,13.73
2022-12-04T04:10:59.790Z,13.03
2022-12-04T04:13:41.053Z,13.00
2022-12-04T04:16:21.386Z,12.40
2022-12-04T04:19:01.033Z,12.83
2022-12-04T04:21:38.439Z,12.13
2022-12-04T04:24:16.325Z,13.20
2022-12-04T04:26:39.832Z,13.10
2022-12-04T04:29:00.826Z,13.90
2022-12-04T04:31:26.345Z,14.07
2022-12-04T04:33:50.793Z,13.63
2022-12-04T04:36:15.926Z,12.87
2022-12-04T04:38:40.654Z,13.30
2022-12-04T04:41:04.989Z,12.83
2022-12-04T04:43:28.128Z,12.20
2022-12-04T04:45:52.276Z,12.67
2022-12-04T04:48:15.816Z,12.53
2022-12-04T04:50:38.054Z,12.47
2022-12-04T04:53:02.152Z,12.97
2022-12-04T04:55:23.622Z,12.80
2022-12-04T04:57:46.381Z,12.00
2022-12-04T05:00:09.650Z,13.30
2022-12-04T05:02:30.708Z,12.23
2022-12-04T05:04:52.103Z,11.87
2022-12-04T05:07:13.356Z,11.83
2022-12-04T05:09:38.233Z,12.00
2022-12-04T05:12:02.355Z,10.77
2022-12-04T05:14:25.038Z,11.20
2022-12-04T05:16:46.498Z,11.03
2022-12-04T05:19:25.611Z,12.07
2022-12-04T05:21:46.993Z,10.70
2022-12-04T05:24:08.762Z,11.60
2022-12-04T05:26:29.950Z,11.87
2022-12-04T05:28:51.351Z,11.57
2022-12-04T05:31:13.828Z,11.93
2022-12-04T05:33:34.850Z,11.00
2022-12-04T05:35:59.694Z,11.57
2022-12-04T05:38:20.955Z,11.63
2022-12-04T05:40:42.164Z,11.13
2022-12-04T05:43:03.469Z,11.70
2022-12-04T05:45:24.700Z,12.07
2022-12-04T05:47:47.279Z,12.33
2022-12-04T05:50:09.407Z,12.30
2022-12-04T05:52:30.542Z,11.57
2022-12-04T05:54:51.817Z,12.20
2022-12-04T05:57:13.203Z,11.70
2022-12-04T05:59:34.553Z,11.77
2022-12-04T06:01:55.822Z,12.17
2022-12-04T06:04:18.314Z,12.20
2022-12-04T06:06:39.838Z,12.03
2022-12-04T06:09:00.922Z,11.93
2022-12-04T06:11:22.905Z,12.40
2022-12-04T06:13:44.550Z,11.83
2022-12-04T06:16:05.943Z,12.53
2022-12-04T06:18:26.799Z,12.83
2022-12-04T06:20:49.471Z,12.63
2022-12-04T06:23:10.779Z,13.43
2022-12-04T06:25:32.136Z,12.07
2022-12-04T06:27:53.738Z,12.87
2022-12-04T06:30:15.300Z,12.73
2022-12-04T06:32:36.318Z,12.50
2022-12-04T06:34:57.700Z,13.00
2022-12-04T06:37:20.558Z,13.57
2022-12-04T06:39:41.594Z,13.77
2022-12-04T06:42:02.867Z,13.57
2022-12-04T06:44:23.937Z,12.70
2022-12-04T06:46:47.386Z,13.60
2022-12-04T06:49:10.885Z,13.63
2022-12-04T06:51:32.894Z,12.20
2022-12-04T06:53:55.662Z,13.10
2022-12-04T06:56:18.136Z,13.97
2022-12-04T06:58:39.792Z,23.40
2022-12-04T07:01:01.154Z,15.90
2022-12-04T07:03:22.992Z,14.97
2022-12-04T07:05:44.270Z,14.40
2022-12-04T07:08:05.799Z,13.77
2022-12-04T07:10:28.679Z,13.00
2022-12-04T07:12:49.807Z,13.20
2022-12-04T07:15:11.414Z,13.20
2022-12-04T07:17:32.329Z,13.33
2022-12-04T07:19:53.669Z,12.93
2022-12-04T07:22:15.452Z,13.20
2022-12-04T07:24:38.017Z,13.23
2022-12-04T07:27:00.578Z,14.30
2022-12-04T07:29:21.876Z,17.13
2022-12-04T07:31:44.446Z,17.87
2022-12-04T07:34:05.782Z,17.07
2022-12-04T07:36:27.381Z,15.97
2022-12-04T07:38:48.705Z,14.60
2022-12-04T07:41:10.982Z,13.80
2022-12-04T07:43:33.291Z,15.57
2022-12-04T07:45:54.516Z,17.67
2022-12-04T07:48:15.826Z,42.40
2022-12-04T07:50:37.154Z,18.27
2022-12-04T07:53:01.389Z,14.17
2022-12-04T07:55:23.441Z,13.13
2022-12-04T07:57:44.571Z,13.33
2022-12-04T08:00:08.178Z,12.73
2022-12-04T08:02:29.617Z,12.80
2022-12-04T08:04:50.975Z,12.50
2022-12-04T08:07:12.026Z,13.23
2022-12-04T08:09:33.664Z,13.10
2022-12-04T08:11:54.553Z,13.87
2022-12-04T08:14:15.754Z,13.03
2022-12-04T08:16:38.417Z,12.17
2022-12-04T08:19:01.075Z,11.83
2022-12-04T08:21:23.502Z,12.87
2022-12-04T08:23:45.190Z,17.10
2022-12-04T08:26:06.619Z,12.93
2022-12-04T08:28:27.770Z,13.17
2022-12-04T08:30:49.328Z,12.47
2022-12-04T08:33:11.932Z,13.27
2022-12-04T08:35:32.933Z,12.33
2022-12-04T08:37:54.475Z,13.77
2022-12-04T08:40:15.830Z,13.50
2022-12-04T08:42:36.843Z,13.10
2022-12-04T08:44:58.296Z,13.07
2022-12-04T08:47:19.444Z,13.13
2022-12-04T08:49:41.846Z,13.43
2022-12-04T08:52:03.054Z,13.40
2022-12-04T08:54:24.256Z,14.23
2022-12-04T08:56:45.493Z,13.77
2022-12-04T08:59:06.813Z,13.00
2022-12-04T09:01:28.648Z,14.20
2022-12-04T09:03:50.119Z,13.40
2022-12-04T09:06:13.886Z,13.27
2022-12-04T09:08:35.239Z,13.30
2022-12-04T09:10:56.557Z,13.27
2022-12-04T09:13:17.834Z,14.13
2022-12-04T09:15:39.946Z,14.40
2022-12-04T09:18:01.097Z,14.50
2022-12-04T09:20:22.363Z,14.10
2022-12-04T09:23:02.855Z,13.97
2022-12-04T09:25:25.032Z,13.53
2022-12-04T09:27:46.408Z,14.73
2022-12-04T09:30:08.404Z,14.43
2022-12-04T09:32:29.634Z,14.00
2022-12-04T09:34:52.832Z,13.30
2022-12-04T09:37:15.750Z,14.07
2022-12-04T09:39:38.155Z,13.57
2022-12-04T09:42:04.768Z,14.50
2022-12-04T09:44:28.913Z,14.27
2022-12-04T09:46:52.636Z,16.67
2022-12-04T09:49:15.375Z,15.50
2022-12-04T09:51:38.526Z,14.77
2022-12-04T09:54:02.073Z,14.97
2022-12-04T09:56:25.990Z,14.93
2022-12-04T09:58:48.497Z,13.80
2022-12-04T10:01:18.098Z,13.90
2022-12-04T10:03:40.838Z,14.17
2022-12-04T10:06:05.466Z,15.10
2022-12-04T10:08:29.090Z,15.13
2022-12-04T10:10:55.778Z,15.27
2022-12-04T10:13:26.643Z,15.70
2022-12-04T10:15:51.510Z,15.33
2022-12-04T10:18:30.772Z,15.93
2022-12-04T10:20:57.353Z,15.60
2022-12-04T10:23:24.415Z,16.03
2022-12-04T10:25:45.428Z,17.00
2022-12-04T10:28:12.690Z,15.53
2022-12-04T10:30:36.911Z,15.83
2022-12-04T10:33:00.160Z,16.33
2022-12-04T10:35:22.744Z,14.97
2022-12-04T10:37:44.546Z,14.77
2022-12-04T10:40:11.090Z,16.20
2022-12-04T10:42:36.997Z,15.83
2022-12-04T10:44:58.642Z,26.27
2022-12-04T10:47:22.290Z,17.07
2022-12-04T10:50:00.225Z,18.33
2022-12-04T10:52:35.428Z,25.57
2022-12-04T10:54:58.903Z,15.47
2022-12-04T10:57:20.269Z,24.33
2022-12-04T10:59:49.247Z,19.13
2022-12-04T11:02:16.735Z,16.17
2022-12-04T11:04:39.789Z,15.13
2022-12-04T11:07:02.816Z,15.23
2022-12-04T11:09:25.445Z,14.20
2022-12-04T11:11:46.599Z,14.67
2022-12-04T11:14:08.951Z,26.23
2022-12-04T11:16:34.867Z,17.00
2022-12-04T11:18:56.547Z,18.57
2022-12-04T11:21:23.926Z,18.37
2022-12-04T11:23:46.037Z,18.87
2022-12-04T11:26:07.431Z,22.13
2022-12-04T11:28:47.103Z,17.53
2022-12-04T11:31:10.392Z,14.80
2022-12-04T11:33:35.428Z,14.77
2022-12-04T11:35:57.937Z,18.67
2022-12-04T11:38:25.243Z,17.77
2022-12-04T11:40:48.231Z,15.33
2022-12-04T11:43:14.264Z,14.20
2022-12-04T11:45:35.433Z,13.83
2022-12-04T11:47:58.189Z,14.60
2022-12-04T11:50:23.843Z,15.40
2022-12-04T11:52:59.968Z,15.20
2022-12-04T11:55:29.150Z,16.37
2022-12-04T11:57:54.192Z,16.37
2022-12-04T12:00:16.381Z,15.93
2022-12-04T12:02:45.897Z,15.30
2022-12-04T12:05:22.742Z,15.57
2022-12-04T12:07:47.261Z,18.90
2022-12-04T12:10:11.598Z,17.30
2022-12-04T12:12:40.797Z,16.80
2022-12-04T12:15:06.058Z,16.67
2022-12-04T12:17:32.506Z,23.67
2022-12-04T12:20:01.148Z,20.47
2022-12-04T12:22:29.980Z,17.47
2022-12-04T12:24:56.776Z,16.37
2022-12-04T12:27:29.953Z,23.97
2022-12-04T12:29:57.115Z,20.57
2022-12-04T12:32:24.558Z,15.73
2022-12-04T12:34:46.506Z,14.93
2022-12-04T12:37:12.626Z,16.60
2022-12-04T12:39:40.119Z,15.47
2022-12-04T12:42:02.342Z,32.47
2022-12-04T12:44:26.179Z,19.43
2022-12-04T12:46:51.510Z,16.47
2022-12-04T12:49:16.222Z,16.23
2022-12-04T12:51:38.827Z,16.33
2022-12-04T12:54:10.604Z,15.80
2022-12-04T12:56:34.362Z,16.37
2022-12-04T12:58:56.804Z,15.40
2022-12-04T13:01:20.933Z,17.10
2022-12-04T13:03:48.058Z,15.97
2022-12-04T13:06:13.252Z,15.97
2022-12-04T13:08:36.575Z,15.83
2022-12-04T13:11:03.496Z,15.63
2022-12-04T13:13:25.992Z,15.43
2022-12-04T13:15:49.735Z,14.70
2022-12-04T13:18:18.539Z,14.83
2022-12-04T13:20:44.730Z,15.60
2022-12-04T13:23:16.238Z,16.10
2022-12-04T13:25:43.260Z,17.50
2022-12-04T13:28:10.196Z,16.97
2022-12-04T13:30:33.151Z,15.87
2022-12-04T13:33:05.574Z,18.07
2022-12-04T13:35:30.234Z,18.57
2022-12-04T13:38:03.699Z,20.37
2022-12-04T13:40:43.106Z,22.13
2022-12-04T13:43:28.327Z,16.70
2022-12-04T13:45:50.493Z,16.70
2022-12-04T13:48:14.106Z,17.30
2022-12-04T13:50:36.393Z,15.77
2022-12-04T13:52:58.180Z,16.10
2022-12-04T13:55:29.113Z,18.57
2022-12-04T13:57:54.231Z,17.37
2022-12-04T14:00:25.785Z,16.50
2022-12-04T14:02:51.161Z,17.47
2022-12-04T14:05:12.998Z,17.03
2022-12-04T14:07:35.096Z,17.73
2022-12-04T14:09:57.322Z,17.93
2022-12-04T14:12:20.086Z,16.47
2022-12-04T14:14:44.522Z,21.17
2022-12-04T14:17:05.770Z,17.33
2022-12-04T14:19:32.386Z,16.93
2022-12-04T14:21:54.201Z,19.73
2022-12-04T14:24:18.871Z,19.37
2022-12-04T14:27:10.535Z,16.57
2022-12-04T14:29:35.673Z,17.77
2022-12-04T14:31:57.287Z,19.30
2022-12-04T14:34:22.627Z,19.53
2022-12-04T14:36:45.010Z,18.50
2022-12-04T14:39:09.150Z,19.37
2022-12-04T14:41:30.274Z,17.80
2022-12-04T14:43:51.714Z,17.70
2022-12-04T14:46:19.972Z,17.83
2022-12-04T14:48:47.012Z,18.57
2022-12-04T14:51:11.589Z,18.90
2022-12-04T14:53:36.270Z,17.63
2022-12-04T14:56:07.092Z,19.20
2022-12-04T14:58:34.846Z,18.70
2022-12-04T15:00:56.686Z,17.27
2022-12-04T15:03:19.636Z,18.47
2022-12-04T15:05:41.852Z,17.97
2022-12-04T15:08:05.401Z,19.03
2022-12-04T15:10:53.914Z,20.30
2022-12-04T15:13:25.718Z,19.27
2022-12-04T15:15:47.577Z,19.67
2022-12-04T15:18:13.260Z,19.93
2022-12-04T15:20:39.590Z,20.17
2022-12-04T15:23:02.696Z,20.37
2022-12-04T15:25:26.241Z,18.97
2022-12-04T15:27:48.120Z,27.77
2022-12-04T15:30:16.430Z,23.33
2022-12-04T15:32:37.749Z,24.40
2022-12-04T15:35:02.158Z,20.90
2022-12-04T15:37:27.048Z,21.77
2022-12-04T15:39:49.825Z,19.87
2022-12-04T15:42:17.051Z,20.70
2022-12-04T15:44:38.055Z,21.17
2022-12-04T15:47:01.412Z,21.23
2022-12-04T15:49:26.373Z,19.80
2022-12-04T15:51:48.441Z,22.33
2022-12-04T15:54:14.858Z,20.20
2022-12-04T15:56:36.133Z,19.90
2022-12-04T15:58:58.723Z,19.97
2022-12-04T16:01:21.218Z,20.57
2022-12-04T16:03:46.345Z,20.00
2022-12-04T16:06:09.836Z,19.97
2022-12-04T16:08:32.019Z,21.40
2022-12-04T16:10:59.015Z,19.93
2022-12-04T16:13:26.871Z,19.10
2022-12-04T16:15:47.984Z,18.70
2022-12-04T16:18:12.111Z,18.53
2022-12-04T16:20:34.627Z,18.67
2022-12-04T16:22:56.032Z,18.37
2022-12-04T16:25:17.909Z,18.90
2022-12-04T16:27:40.543Z,18.10
2022-12-04T16:30:01.786Z,20.60
2022-12-04T16:32:25.691Z,22.27
2022-12-04T16:34:46.932Z,21.83
2022-12-04T16:37:12.396Z,20.53
2022-12-04T16:39:38.214Z,21.80
2022-12-04T16:42:02.048Z,20.90
2022-12-04T16:44:24.619Z,21.87
2022-12-04T16:46:45.802Z,21.97
2022-12-04T16:49:07.738Z,19.60
2022-12-04T16:51:29.847Z,22.07
2022-12-04T16:53:51.814Z,22.03
2022-12-04T16:56:12.868Z,22.20
2022-12-04T16:58:34.229Z,22.20
2022-12-04T17:00:57.357Z,20.90
2022-12-04T17:03:19.827Z,21.73
2022-12-04T17:05:43.002Z,27.83
2022-12-04T17:08:04.357Z,19.30
2022-12-04T17:10:25.528Z,19.57
2022-12-04T17:12:46.967Z,18.67
2022-12-04T17:15:08.270Z,19.80
2022-12-04T17:17:30.758Z,20.00
2022-12-04T17:19:52.114Z,24.00
2022-12-04T17:22:14.186Z,20.30
2022-12-04T17:24:37.830Z,20.03
2022-12-04T17:27:01.210Z,19.90
2022-12-04T17:29:22.544Z,18.73
2022-12-04T17:31:43.881Z,19.00
2022-12-04T17:34:06.637Z,19.70
2022-12-04T17:36:28.508Z,18.43
2022-12-04T17:38:49.511Z,18.50
2022-12-04T17:41:13.650Z,19.40
2022-12-04T17:43:34.998Z,18.13
2022-12-04T17:45:56.685Z,18.87
2022-12-04T17:48:17.760Z,18.97
2022-12-04T17:50:40.481Z,19.60
2022-12-04T17:53:01.846Z,19.60
2022-12-04T17:55:26.334Z,19.27
2022-12-04T17:57:47.514Z,18.03
2022-12-04T18:00:09.191Z,19.90
2022-12-04T18:02:30.509Z,20.10
2022-12-04T18:04:56.096Z,19.50
2022-12-04T18:07:19.097Z,19.63
2022-12-04T18:09:42.501Z,18.93
2022-12-04T18:12:03.916Z,18.90
2022-12-04T18:14:25.771Z,18.93
2022-12-04T18:16:51.034Z,19.83
2022-12-04T18:19:12.473Z,20.47
2022-12-04T18:21:34.205Z,20.80
2022-12-04T18:23:58.434Z,20.97
2022-12-04T18:26:23.896Z,20.10
2022-12-04T18:28:45.726Z,25.17
2022-12-04T18:31:07.857Z,23.77
2022-12-04T18:33:29.916Z,23.57
2022-12-04T18:35:54.579Z,20.70
2022-12-04T18:38:15.538Z,23.27
2022-12-04T18:40:38.232Z,22.63
2022-12-04T18:42:59.290Z,21.30
2022-12-04T18:45:23.182Z,19.93
2022-12-04T18:47:44.409Z,22.47
2022-12-04T18:50:06.149Z,22.77
2022-12-04T18:52:27.427Z,21.20
2022-12-04T18:54:48.849Z,20.93
2022-12-04T18:57:14.553Z,19.83
2022-12-04T18:59:37.276Z,20.50
2022-12-04T19:01:58.547Z,20.57
2022-12-04T19:04:20.576Z,20.67
2022-12-04T19:06:43.368Z,21.37
2022-12-04T19:09:05.782Z,21.50
2022-12-04T19:11:26.766Z,22.50
2022-12-04T19:13:49.591Z,24.37
2022-12-04T19:16:11.650Z,24.87
2022-12-04T19:18:32.941Z,23.27
2022-12-04T19:20:54.302Z,27.40
2022-12-04T19:23:15.474Z,24.83
2022-12-04T19:25:36.744Z,23.67
2022-12-04T19:27:58.066Z,23.03
2022-12-04T19:30:20.893Z,24.10
2022-12-04T19:32:42.219Z,24.37
2022-12-04T19:35:03.656Z,25.90
2022-12-04T19:37:25.045Z,24.23
2022-12-04T19:39:46.368Z,26.07
2022-12-04T19:42:07.937Z,23.63
2022-12-04T19:47:11.367Z,23.40
2022-12-04T19:49:33.206Z,24.77
2022-12-04T19:51:54.312Z,23.67
2022-12-04T19:54:15.920Z,24.23
2022-12-04T19:56:37.290Z,22.17
2022-12-04T19:59:00.425Z,23.17
2022-12-04T20:01:24.695Z,24.17
2022-12-04T20:03:47.768Z,24.73
2022-12-04T20:06:10.517Z,23.60
2022-12-04T20:08:31.529Z,24.10
2022-12-04T20:10:52.712Z,25.17
2022-12-04T20:13:16.256Z,25.93
2022-12-04T20:15:37.218Z,23.60
2022-12-04T20:17:58.390Z,24.77
2022-12-04T20:20:21.058Z,24.13
2022-12-04T20:22:42.428Z,22.07
2022-12-04T20:25:03.869Z,23.13
2022-12-04T20:27:25.287Z,22.13
2022-12-04T20:29:46.693Z,23.73
2022-12-04T20:32:08.044Z,25.57
2022-12-04T20:34:30.625Z,44.23
2022-12-04T20:36:53.419Z,25.70
2022-12-04T20:39:15.585Z,35.87
2022-12-04T20:41:37.257Z,26.60
2022-12-04T20:43:59.880Z,24.93
2022-12-04T20:46:22.311Z,21.97
2022-12-04T20:48:47.996Z,23.93
2022-12-04T20:51:09.397Z,23.40
2022-12-04T20:53:32.120Z,22.10
2022-12-04T20:55:53.765Z,22.00
2022-12-04T20:58:14.919Z,22.47
2022-12-04T21:00:36.112Z,23.83
2022-12-04T21:02:57.338Z,23.70
2022-12-04T21:05:18.587Z,23.33
2022-12-04T21:07:39.849Z,23.23
2022-12-04T21:10:03.549Z,23.67
2022-12-04T21:12:43.462Z,22.60
2022-12-04T21:15:22.083Z,22.97
2022-12-04T21:17:43.478Z,21.97
2022-12-04T21:20:07.878Z,21.10
2022-12-04T21:22:29.082Z,21.63
2022-12-04T21:24:50.362Z,23.27
2022-12-04T21:27:21.033Z,24.87
2022-12-04T21:29:43.144Z,25.07
2022-12-04T21:32:04.969Z,23.80
2022-12-04T21:34:26.176Z,22.50
2022-12-04T21:36:47.507Z,22.67
2022-12-04T21:39:08.894Z,20.57
2022-12-04T21:41:47.492Z,21.93
2022-12-04T21:44:12.547Z,18.90
2022-12-04T21:46:34.387Z,20.13
2022-12-04T21:48:55.751Z,18.33
2022-12-04T21:51:39.837Z,18.53
2022-12-04T21:53:57.917Z,18.23
2022-12-04T21:56:19.286Z,16.87
2022-12-04T21:58:40.602Z,17.20
2022-12-04T22:01:09.052Z,17.63
2022-12-04T22:03:30.210Z,17.17
2022-12-04T22:05:51.544Z,16.63
2022-12-04T22:08:13.623Z,17.10
2022-12-04T22:10:35.157Z,16.50
2022-12-04T22:12:56.480Z,16.17
2022-12-04T22:15:17.905Z,15.93
2022-12-04T22:17:41.329Z,15.97
2022-12-04T22:20:02.114Z,17.07
2022-12-04T22:22:23.194Z,16.73
2022-12-04T22:24:44.452Z,17.27
2022-12-04T22:27:05.745Z,15.70
2022-12-04T22:29:49.331Z,16.17
2022-12-04T22:32:07.774Z,15.87
2022-12-04T22:34:30.536Z,16.63
2022-12-04T22:36:52.017Z,17.00
2022-12-04T22:39:13.338Z,16.03
2022-12-04T22:41:34.879Z,16.13
2022-12-04T22:43:56.191Z,14.83
2022-12-04T22:46:17.510Z,15.60
2022-12-04T22:48:39.538Z,14.57
2022-12-04T22:51:03.009Z,14.73
2022-12-04T22:53:24.478Z,13.67
2022-12-04T22:55:45.491Z,14.57
2022-12-04T22:58:06.686Z,14.33
2022-12-04T23:00:28.286Z,13.40
2022-12-04T23:02:49.262Z,14.60
2022-12-04T23:05:10.534Z,18.83
2022-12-04T23:07:33.307Z,16.27
2022-12-04T23:09:54.712Z,14.83
2022-12-04T23:12:16.225Z,14.27
2022-12-04T23:14:37.362Z,15.37
2022-12-04T23:16:58.643Z,14.40
2022-12-04T23:19:20.315Z,14.60
2022-12-04T23:21:41.415Z,18.53
2022-12-04T23:24:04.065Z,15.33
2022-12-04T23:26:32.061Z,14.87
2022-12-04T23:28:53.070Z,14.37
2022-12-04T23:31:14.465Z,14.90
2022-12-04T23:33:36.047Z,14.80
2022-12-04T23:35:58.110Z,14.87
2022-12-04T23:38:19.661Z,14.73
2022-12-04T23:40:42.197Z,14.27
2022-12-04T23:43:03.182Z,15.03
2022-12-04T23:45:24.362Z,14.70
2022-12-04T23:47:47.390Z,14.90
2022-12-04T23:50:09.017Z,14.93
2022-12-04T23:52:30.122Z,15.17
2022-12-04T23:54:53.208Z,14.70
2022-12-04T23:57:15.576Z,14.50
2022-12-04T23:59:36.978Z,15.80
